createdAt,value
2018-10-07T00:00:42.344Z,23
2018-10-07T00:01:47.790Z,23.1
2018-10-07T00:02:52.680Z,23
2018-10-07T00:03:58.443Z,23.1
2018-10-07T00:05:03.946Z,23
2018-10-07T00:06:08.324Z,23.1
2018-10-07T00:07:13.500Z,23.1
2018-10-07T00:08:18.978Z,23.1
2018-10-07T00:09:24.460Z,23.1
2018-10-07T00:10:44.552Z,23
2018-10-07T00:11:49.144Z,23.1
2018-10-07T00:12:54.583Z,23.1
2018-10-07T00:13:59.206Z,23
2018-10-07T00:15:04.123Z,23.1
2018-10-07T00:16:09.947Z,23
2018-10-07T00:17:14.541Z,23
2018-10-07T00:18:19.969Z,23
2018-10-07T00:19:25.089Z,23
2018-10-07T00:20:29.953Z,23.1
2018-10-07T00:21:35.395Z,23
2018-10-07T00:22:40.595Z,23
2018-10-07T00:23:46.037Z,23
2018-10-07T00:24:51.337Z,23
2018-10-07T00:25:56.266Z,23.1
2018-10-07T00:27:01.720Z,23
2018-10-07T00:28:06.625Z,23
2018-10-07T00:29:11.763Z,23
2018-10-07T00:30:16.920Z,23
2018-10-07T00:31:22.865Z,23
2018-10-07T00:32:27.840Z,23
2018-10-07T00:33:33.675Z,23
2018-10-07T00:34:38.596Z,23
2018-10-07T00:35:44.069Z,23
2018-10-07T00:36:49.464Z,23
2018-10-07T00:37:54.894Z,23
2018-10-07T00:39:00.328Z,23
2018-10-07T00:40:05.753Z,23
2018-10-07T00:41:10.702Z,23
2018-10-07T00:42:16.297Z,23
2018-10-07T00:43:21.954Z,23
2018-10-07T00:44:27.443Z,23
2018-10-07T00:45:32.605Z,23
2018-10-07T00:46:38.035Z,23
2018-10-07T00:47:43.614Z,23
2018-10-07T00:48:49.171Z,23
2018-10-07T00:49:54.315Z,23
2018-10-07T00:50:59.835Z,23
2018-10-07T00:52:05.391Z,23
2018-10-07T00:53:10.543Z,23
2018-10-07T00:54:15.462Z,23
2018-10-07T00:55:21.229Z,23
2018-10-07T00:56:26.388Z,23
2018-10-07T00:57:31.879Z,23
2018-10-07T00:58:36.778Z,23
2018-10-07T00:59:42.215Z,23
2018-10-07T01:00:47.414Z,23
2018-10-07T01:01:52.617Z,23
2018-10-07T01:02:58.042Z,23
2018-10-07T01:04:03.925Z,23
2018-10-07T01:05:09.369Z,23
2018-10-07T01:06:14.811Z,23
2018-10-07T01:07:20.650Z,23
2018-10-07T01:08:25.811Z,23
2018-10-07T01:09:31.652Z,23
2018-10-07T01:10:36.794Z,23
2018-10-07T01:11:42.021Z,23
2018-10-07T01:12:47.165Z,23
2018-10-07T01:13:52.305Z,23
2018-10-07T01:14:57.733Z,23
2018-10-07T01:16:03.128Z,23
2018-10-07T01:17:08.285Z,23
2018-10-07T01:18:13.441Z,23
2018-10-07T01:19:18.563Z,23
2018-10-07T01:20:23.950Z,23
2018-10-07T01:21:29.782Z,23
2018-10-07T01:22:35.329Z,23
2018-10-07T01:23:40.778Z,23
2018-10-07T01:24:46.813Z,23
2018-10-07T01:25:51.684Z,23
2018-10-07T01:26:56.841Z,23
2018-10-07T01:28:02.236Z,23
2018-10-07T01:29:06.823Z,23
2018-10-07T01:30:12.012Z,23
2018-10-07T01:31:17.455Z,23
2018-10-07T01:32:22.882Z,23
2018-10-07T01:33:28.785Z,23
2018-10-07T01:34:33.926Z,23
2018-10-07T01:35:39.099Z,23
2018-10-07T01:36:44.879Z,23
2018-10-07T01:37:50.413Z,23
2018-10-07T01:38:55.841Z,23
2018-10-07T01:40:01.749Z,23
2018-10-07T01:41:06.710Z,23
2018-10-07T01:42:12.165Z,23
2018-10-07T01:43:17.738Z,23
2018-10-07T01:44:23.274Z,23
2018-10-07T01:45:28.793Z,23
2018-10-07T01:46:34.221Z,23
2018-10-07T01:47:39.500Z,23
2018-10-07T01:48:45.252Z,23
2018-10-07T01:49:50.120Z,23
2018-10-07T01:50:55.273Z,23
2018-10-07T01:52:01.195Z,23
2018-10-07T01:53:06.630Z,23
2018-10-07T01:54:11.493Z,23
2018-10-07T01:55:17.059Z,23
2018-10-07T01:56:22.305Z,23
2018-10-07T01:57:28.281Z,23
2018-10-07T01:58:33.548Z,23
2018-10-07T01:59:38.690Z,23
2018-10-07T02:00:44.580Z,23
2018-10-07T02:01:49.479Z,23
2018-10-07T02:02:54.914Z,23
2018-10-07T02:04:00.313Z,23
2018-10-07T02:05:05.905Z,23
2018-10-07T02:06:12.088Z,23
2018-10-07T02:07:17.602Z,23
2018-10-07T02:08:22.750Z,23
2018-10-07T02:09:28.448Z,23
2018-10-07T02:10:33.937Z,23
2018-10-07T02:11:39.373Z,23
2018-10-07T02:12:44.906Z,23
2018-10-07T02:13:50.073Z,23
2018-10-07T02:14:54.573Z,23
2018-10-07T02:16:00.231Z,23
2018-10-07T02:17:05.457Z,23
2018-10-07T02:18:10.439Z,23
2018-10-07T02:19:16.189Z,23
2018-10-07T02:20:21.377Z,23
2018-10-07T02:21:26.132Z,23
2018-10-07T02:22:31.305Z,23
2018-10-07T02:23:35.893Z,23
2018-10-07T02:24:41.922Z,23
2018-10-07T02:25:47.440Z,23
2018-10-07T02:26:52.942Z,23
2018-10-07T02:27:58.206Z,23
2018-10-07T02:29:03.740Z,23
2018-10-07T02:30:08.901Z,23
2018-10-07T02:31:14.303Z,23
2018-10-07T02:32:19.886Z,23
2018-10-07T02:34:45.770Z,23
2018-10-07T02:35:50.911Z,23
2018-10-07T02:36:56.479Z,23
2018-10-07T02:38:01.685Z,23
2018-10-07T02:39:07.113Z,23
2018-10-07T02:40:13.028Z,23
2018-10-07T02:41:17.915Z,23
2018-10-07T02:42:23.345Z,23
2018-10-07T02:43:43.605Z,23
2018-10-07T02:44:49.038Z,23
2018-10-07T02:45:54.325Z,23
2018-10-07T02:46:59.546Z,23
2018-10-07T02:48:04.716Z,23
2018-10-07T02:49:10.266Z,23
2018-10-07T02:50:15.479Z,23
2018-10-07T02:51:20.398Z,23
2018-10-07T02:52:26.294Z,23
2018-10-07T02:53:31.170Z,23
2018-10-07T02:54:36.467Z,23
2018-10-07T02:55:42.061Z,23
2018-10-07T02:56:46.696Z,23
2018-10-07T02:57:51.695Z,23
2018-10-07T02:58:57.125Z,23
2018-10-07T03:00:02.613Z,23
2018-10-07T03:01:07.508Z,23
2018-10-07T03:02:12.693Z,23
2018-10-07T03:03:17.851Z,23
2018-10-07T03:04:23.312Z,23
2018-10-07T03:05:28.945Z,23
2018-10-07T03:06:34.469Z,23
2018-10-07T03:07:39.902Z,23
2018-10-07T03:08:45.163Z,23
2018-10-07T03:09:50.599Z,23
2018-10-07T03:10:56.030Z,23
2018-10-07T03:12:01.688Z,23
2018-10-07T03:13:07.647Z,23
2018-10-07T03:14:12.682Z,23
2018-10-07T03:15:18.223Z,23
2018-10-07T03:16:23.926Z,23
2018-10-07T03:17:29.076Z,23
2018-10-07T03:18:35.121Z,22.9
2018-10-07T03:19:39.822Z,22.9
2018-10-07T03:20:45.456Z,23
2018-10-07T03:21:50.479Z,23
2018-10-07T03:22:55.907Z,23
2018-10-07T03:24:00.785Z,23
2018-10-07T03:25:06.187Z,22.9
2018-10-07T03:26:11.073Z,23
2018-10-07T03:27:16.226Z,23
2018-10-07T03:28:21.629Z,23
2018-10-07T03:29:27.120Z,23
2018-10-07T03:30:33.599Z,23
2018-10-07T03:31:38.835Z,23
2018-10-07T03:32:44.035Z,23
2018-10-07T03:33:49.430Z,23
2018-10-07T03:34:54.038Z,23
2018-10-07T03:35:59.527Z,23
2018-10-07T03:37:04.772Z,23
2018-10-07T03:38:10.220Z,23
2018-10-07T03:39:15.418Z,22.9
2018-10-07T03:40:20.846Z,22.9
2018-10-07T03:41:26.388Z,22.9
2018-10-07T03:42:32.029Z,22.9
2018-10-07T03:43:37.006Z,22.9
2018-10-07T03:44:42.450Z,22.9
2018-10-07T03:45:47.888Z,23
2018-10-07T03:46:53.129Z,22.9
2018-10-07T03:47:58.557Z,22.9
2018-10-07T03:49:04.381Z,22.9
2018-10-07T03:50:09.253Z,22.9
2018-10-07T03:51:14.718Z,22.9
2018-10-07T03:52:20.227Z,22.9
2018-10-07T03:53:25.378Z,22.9
2018-10-07T03:54:30.973Z,22.9
2018-10-07T03:55:36.211Z,22.9
2018-10-07T03:56:41.102Z,22.9
2018-10-07T03:57:46.000Z,22.9
2018-10-07T03:58:51.502Z,22.9
2018-10-07T03:59:56.941Z,22.9
2018-10-07T04:01:02.089Z,22.9
2018-10-07T04:02:07.308Z,22.9
2018-10-07T04:03:12.732Z,22.9
2018-10-07T04:04:18.756Z,22.9
2018-10-07T04:05:23.990Z,22.9
2018-10-07T04:06:29.683Z,22.9
2018-10-07T04:07:35.015Z,22.9
2018-10-07T04:08:40.467Z,22.9
2018-10-07T04:09:45.964Z,23
2018-10-07T04:10:51.449Z,22.9
2018-10-07T04:11:56.882Z,22.9
2018-10-07T04:13:02.300Z,22.9
2018-10-07T04:14:07.438Z,23
2018-10-07T04:15:12.154Z,22.9
2018-10-07T04:16:17.840Z,22.9
2018-10-07T04:17:23.261Z,22.9
2018-10-07T04:18:29.147Z,22.9
2018-10-07T04:19:34.025Z,23
2018-10-07T04:20:39.563Z,22.9
2018-10-07T04:21:45.071Z,22.9
2018-10-07T04:22:49.659Z,22.9
2018-10-07T04:23:54.837Z,22.9
2018-10-07T04:25:00.789Z,22.9
2018-10-07T04:26:05.663Z,22.9
2018-10-07T04:27:11.204Z,22.9
2018-10-07T04:28:16.884Z,22.9
2018-10-07T04:29:22.033Z,22.9
2018-10-07T04:30:27.600Z,22.9
2018-10-07T04:31:32.584Z,22.9
2018-10-07T04:32:37.444Z,22.9
2018-10-07T04:33:43.059Z,22.9
2018-10-07T04:34:48.000Z,22.9
2018-10-07T04:35:53.577Z,22.9
2018-10-07T04:36:58.858Z,22.9
2018-10-07T04:38:04.204Z,22.9
2018-10-07T04:39:09.097Z,22.9
2018-10-07T04:40:14.703Z,22.9
2018-10-07T04:41:19.898Z,22.9
2018-10-07T04:43:45.482Z,22.9
2018-10-07T04:44:50.631Z,22.9
2018-10-07T04:45:56.070Z,22.9
2018-10-07T04:47:01.009Z,22.9
2018-10-07T04:48:05.925Z,22.9
2018-10-07T04:49:11.165Z,22.9
2018-10-07T04:50:16.434Z,22.9
2018-10-07T04:51:21.858Z,22.9
2018-10-07T04:52:27.516Z,22.9
2018-10-07T04:53:32.422Z,22.9
2018-10-07T04:54:37.980Z,22.9
2018-10-07T04:55:43.484Z,22.9
2018-10-07T04:56:48.917Z,22.9
2018-10-07T04:57:54.608Z,22.9
2018-10-07T04:59:00.128Z,22.9
2018-10-07T05:00:04.470Z,22.9
2018-10-07T05:01:10.063Z,22.9
2018-10-07T05:02:14.659Z,22.9
2018-10-07T05:03:19.954Z,22.9
2018-10-07T05:04:40.481Z,22.9
2018-10-07T05:05:45.910Z,22.9
2018-10-07T05:06:50.816Z,22.9
2018-10-07T05:07:56.250Z,22.9
2018-10-07T05:09:01.755Z,22.9
2018-10-07T05:10:06.401Z,22.9
2018-10-07T05:11:10.975Z,22.9
2018-10-07T05:12:16.249Z,22.9
2018-10-07T05:13:23.017Z,22.9
2018-10-07T05:14:28.464Z,22.9
2018-10-07T05:15:33.453Z,22.9
2018-10-07T05:16:38.066Z,22.9
2018-10-07T05:17:43.215Z,22.9
2018-10-07T05:18:49.087Z,22.9
2018-10-07T05:19:54.237Z,22.9
2018-10-07T05:20:59.403Z,22.9
2018-10-07T05:22:05.819Z,22.9
2018-10-07T05:23:11.312Z,22.9
2018-10-07T05:24:16.801Z,22.9
2018-10-07T05:25:22.553Z,22.9
2018-10-07T05:26:28.077Z,22.9
2018-10-07T05:27:33.391Z,22.9
2018-10-07T05:28:37.994Z,22.9
2018-10-07T05:29:43.493Z,22.9
2018-10-07T05:30:49.186Z,22.9
2018-10-07T05:31:54.610Z,22.9
2018-10-07T05:33:00.117Z,22.9
2018-10-07T05:34:05.345Z,22.9
2018-10-07T05:35:10.803Z,22.9
2018-10-07T05:36:16.229Z,22.9
2018-10-07T05:37:22.036Z,22.9
2018-10-07T05:38:26.905Z,22.9
2018-10-07T05:39:32.504Z,22.9
2018-10-07T05:40:37.445Z,22.9
2018-10-07T05:41:42.589Z,22.9
2018-10-07T05:42:48.066Z,22.9
2018-10-07T05:43:53.209Z,22.9
2018-10-07T05:44:58.711Z,22.9
2018-10-07T05:46:04.566Z,22.9
2018-10-07T05:47:09.528Z,22.9
2018-10-07T05:48:14.723Z,22.9
2018-10-07T05:49:20.727Z,22.9
2018-10-07T05:50:26.250Z,22.9
2018-10-07T05:51:32.178Z,22.9
2018-10-07T05:52:37.608Z,22.9
2018-10-07T05:53:43.052Z,22.9
2018-10-07T05:54:48.805Z,22.9
2018-10-07T05:55:53.990Z,22.9
2018-10-07T05:56:59.138Z,22.9
2018-10-07T05:58:04.449Z,22.9
2018-10-07T05:59:09.911Z,22.9
2018-10-07T06:00:15.392Z,22.9
2018-10-07T06:01:20.992Z,22.9
2018-10-07T06:02:26.162Z,22.9
2018-10-07T06:03:31.724Z,22.9
2018-10-07T06:04:37.153Z,22.9
2018-10-07T06:05:42.376Z,22.9
2018-10-07T06:06:47.788Z,22.9
2018-10-07T06:07:52.652Z,22.8
2018-10-07T06:08:57.823Z,22.9
2018-10-07T06:10:03.094Z,22.8
2018-10-07T06:11:07.411Z,22.9
2018-10-07T06:12:12.672Z,22.8
2018-10-07T06:13:17.899Z,22.8
2018-10-07T06:14:23.326Z,22.9
2018-10-07T06:15:28.355Z,22.9
2018-10-07T06:16:33.464Z,22.9
2018-10-07T06:17:38.962Z,22.9
2018-10-07T06:18:44.791Z,22.9
2018-10-07T06:19:49.961Z,22.9
2018-10-07T06:20:55.100Z,22.9
2018-10-07T06:22:00.510Z,22.8
2018-10-07T06:23:04.907Z,22.8
2018-10-07T06:24:10.056Z,22.8
2018-10-07T06:25:15.459Z,22.9
2018-10-07T06:26:20.888Z,22.8
2018-10-07T06:27:26.280Z,22.8
2018-10-07T06:28:31.143Z,22.8
2018-10-07T06:29:35.736Z,22.9
2018-10-07T06:30:41.800Z,22.8
2018-10-07T06:31:46.956Z,22.8
2018-10-07T06:32:51.827Z,22.8
2018-10-07T06:33:57.473Z,22.8
2018-10-07T06:35:02.124Z,22.8
2018-10-07T06:36:07.600Z,22.8
2018-10-07T06:37:13.454Z,22.8
2018-10-07T06:38:18.603Z,22.8
2018-10-07T06:39:23.747Z,22.9
2018-10-07T06:40:44.384Z,22.8
2018-10-07T06:41:49.838Z,22.8
2018-10-07T06:42:55.612Z,22.8
2018-10-07T06:44:01.111Z,22.8
2018-10-07T06:45:05.703Z,22.8
2018-10-07T06:46:10.810Z,22.8
2018-10-07T06:47:15.994Z,22.8
2018-10-07T06:48:21.410Z,22.8
2018-10-07T06:49:26.870Z,22.8
2018-10-07T06:50:31.792Z,22.8
2018-10-07T06:51:37.658Z,22.8
2018-10-07T06:52:42.260Z,22.8
2018-10-07T06:53:47.136Z,22.8
2018-10-07T06:54:52.999Z,22.8
2018-10-07T06:55:58.449Z,22.8
2018-10-07T06:57:03.940Z,22.8
2018-10-07T06:58:09.453Z,22.8
2018-10-07T06:59:14.895Z,22.8
2018-10-07T07:00:20.335Z,22.8
2018-10-07T07:01:40.385Z,22.8
2018-10-07T07:02:45.877Z,22.8
2018-10-07T07:03:51.702Z,22.8
2018-10-07T07:04:56.843Z,22.8
2018-10-07T07:06:02.068Z,22.8
2018-10-07T07:07:06.825Z,22.8
2018-10-07T07:08:11.969Z,22.8
2018-10-07T07:09:17.206Z,22.8
2018-10-07T07:10:22.381Z,22.8
2018-10-07T07:11:28.015Z,22.8
2018-10-07T07:12:33.663Z,22.8
2018-10-07T07:13:38.899Z,22.8
2018-10-07T07:14:44.389Z,22.8
2018-10-07T07:15:49.804Z,22.8
2018-10-07T07:16:55.239Z,22.8
2018-10-07T07:18:00.718Z,22.8
2018-10-07T07:19:05.627Z,22.8
2018-10-07T07:20:10.858Z,22.8
2018-10-07T07:21:16.322Z,22.8
2018-10-07T07:22:21.764Z,22.8
2018-10-07T07:23:26.698Z,22.8
2018-10-07T07:24:32.531Z,22.8
2018-10-07T07:25:38.015Z,22.8
2018-10-07T07:26:43.007Z,22.8
2018-10-07T07:27:48.276Z,22.8
2018-10-07T07:28:53.541Z,22.8
2018-10-07T07:29:58.746Z,22.8
2018-10-07T07:31:04.239Z,22.8
2018-10-07T07:32:09.749Z,22.8
2018-10-07T07:33:14.909Z,22.8
2018-10-07T07:34:20.191Z,22.8
2018-10-07T07:35:25.408Z,22.8
2018-10-07T07:36:31.023Z,22.8
2018-10-07T07:37:35.872Z,22.8
2018-10-07T07:38:41.078Z,22.8
2018-10-07T07:39:46.294Z,22.8
2018-10-07T07:40:51.460Z,22.8
2018-10-07T07:41:56.629Z,22.8
2018-10-07T07:43:01.920Z,22.8
2018-10-07T07:44:06.788Z,22.8
2018-10-07T07:45:12.328Z,22.8
2018-10-07T07:46:18.017Z,22.8
2018-10-07T07:47:23.431Z,22.8
2018-10-07T07:48:29.416Z,22.8
2018-10-07T07:49:34.603Z,22.8
2018-10-07T07:50:40.069Z,22.8
2018-10-07T07:51:44.898Z,22.8
2018-10-07T07:52:50.377Z,22.8
2018-10-07T07:53:55.535Z,22.8
2018-10-07T07:55:00.952Z,22.8
2018-10-07T07:56:04.985Z,22.8
2018-10-07T07:57:09.597Z,22.8
2018-10-07T07:58:14.776Z,22.8
2018-10-07T07:59:20.011Z,22.8
2018-10-07T08:00:25.593Z,22.8
2018-10-07T08:01:30.761Z,22.8
2018-10-07T08:02:36.377Z,22.8
2018-10-07T08:03:42.346Z,22.8
2018-10-07T08:04:47.487Z,22.8
2018-10-07T08:05:52.709Z,22.8
2018-10-07T08:06:57.628Z,22.8
2018-10-07T08:08:02.502Z,22.8
2018-10-07T08:09:07.103Z,22.8
2018-10-07T08:10:12.246Z,22.8
2018-10-07T08:11:17.414Z,22.8
2018-10-07T08:12:22.288Z,22.8
2018-10-07T08:13:27.687Z,22.8
2018-10-07T08:14:33.120Z,22.8
2018-10-07T08:15:38.592Z,22.8
2018-10-07T08:16:43.744Z,22.8
2018-10-07T08:17:49.059Z,22.8
2018-10-07T08:18:54.474Z,22.8
2018-10-07T08:19:59.614Z,22.8
2018-10-07T08:21:05.049Z,22.8
2018-10-07T08:22:10.618Z,22.8
2018-10-07T08:23:16.205Z,22.8
2018-10-07T08:24:21.790Z,22.8
2018-10-07T08:25:27.720Z,22.8
2018-10-07T08:26:32.923Z,22.8
2018-10-07T08:27:38.511Z,22.8
2018-10-07T08:28:43.204Z,22.8
2018-10-07T08:29:48.078Z,22.8
2018-10-07T08:30:53.819Z,22.9
2018-10-07T08:31:58.148Z,22.9
2018-10-07T08:33:03.325Z,22.8
2018-10-07T08:34:09.074Z,22.8
2018-10-07T08:35:14.535Z,22.8
2018-10-07T08:36:20.880Z,22.8
2018-10-07T08:37:26.468Z,22.8
2018-10-07T08:38:31.993Z,22.8
2018-10-07T08:39:37.614Z,22.8
2018-10-07T08:40:43.028Z,22.8
2018-10-07T08:41:47.342Z,22.8
2018-10-07T08:42:52.845Z,22.8
2018-10-07T08:43:57.996Z,22.8
2018-10-07T08:45:03.495Z,22.8
2018-10-07T08:46:08.359Z,22.8
2018-10-07T08:47:13.799Z,22.8
2018-10-07T08:48:19.030Z,22.8
2018-10-07T08:49:24.424Z,22.8
2018-10-07T08:50:29.055Z,22.8
2018-10-07T08:51:34.465Z,22.9
2018-10-07T08:52:39.943Z,22.8
2018-10-07T08:53:45.140Z,22.8
2018-10-07T08:54:50.658Z,22.8
2018-10-07T08:55:56.090Z,22.9
2018-10-07T08:57:01.524Z,22.9
2018-10-07T08:58:06.536Z,22.9
2018-10-07T08:59:11.855Z,22.9
2018-10-07T09:00:17.370Z,22.8
2018-10-07T09:01:22.819Z,22.9
2018-10-07T09:02:27.716Z,22.9
2018-10-07T09:03:33.746Z,22.9
2018-10-07T09:04:38.934Z,22.9
2018-10-07T09:05:44.371Z,22.9
2018-10-07T09:06:49.744Z,22.9
2018-10-07T09:07:54.658Z,22.9
2018-10-07T09:08:59.710Z,22.9
2018-10-07T09:10:05.165Z,22.9
2018-10-07T09:11:10.036Z,22.9
2018-10-07T09:12:15.586Z,22.9
2018-10-07T09:13:20.987Z,22.9
2018-10-07T09:14:26.162Z,22.9
2018-10-07T09:15:32.062Z,22.9
2018-10-07T09:16:37.243Z,22.9
2018-10-07T09:17:42.386Z,22.9
2018-10-07T09:18:47.524Z,22.9
2018-10-07T09:19:52.963Z,22.9
2018-10-07T09:20:58.413Z,22.9
2018-10-07T09:22:04.895Z,22.9
2018-10-07T09:23:09.774Z,22.9
2018-10-07T09:24:15.267Z,22.9
2018-10-07T09:25:20.966Z,22.9
2018-10-07T09:26:26.447Z,22.9
2018-10-07T09:27:32.861Z,22.9
2018-10-07T09:28:38.639Z,22.9
2018-10-07T09:29:43.898Z,22.9
2018-10-07T09:30:49.647Z,22.9
2018-10-07T09:31:54.896Z,22.9
2018-10-07T09:33:00.051Z,22.9
2018-10-07T09:34:04.652Z,22.9
2018-10-07T09:35:09.596Z,22.9
2018-10-07T09:36:14.750Z,22.9
2018-10-07T09:37:20.599Z,23
2018-10-07T09:38:25.478Z,22.9
2018-10-07T09:39:31.465Z,23
2018-10-07T09:40:36.974Z,23
2018-10-07T09:41:42.131Z,23
2018-10-07T09:42:47.364Z,23
2018-10-07T09:43:52.095Z,23
2018-10-07T09:44:57.531Z,23
2018-10-07T09:46:02.929Z,23
2018-10-07T09:47:08.145Z,23
2018-10-07T09:48:13.729Z,23
2018-10-07T09:49:18.734Z,23
2018-10-07T09:50:23.881Z,23
2018-10-07T09:51:29.464Z,23
2018-10-07T09:52:34.074Z,23
2018-10-07T09:53:39.267Z,23
2018-10-07T09:54:44.764Z,23
2018-10-07T09:55:49.734Z,23
2018-10-07T09:56:54.963Z,23
2018-10-07T09:58:00.895Z,23
2018-10-07T09:59:06.440Z,23
2018-10-07T10:00:11.582Z,23
2018-10-07T10:01:16.966Z,23
2018-10-07T10:02:22.876Z,23
2018-10-07T10:03:28.654Z,23
2018-10-07T10:04:33.679Z,23
2018-10-07T10:05:39.361Z,23
2018-10-07T10:06:45.142Z,23
2018-10-07T10:07:50.333Z,23
2018-10-07T10:08:55.482Z,23
2018-10-07T10:13:49.124Z,23
2018-10-07T10:14:54.269Z,23
2018-10-07T10:15:59.668Z,23
2018-10-07T10:17:05.129Z,23
2018-10-07T10:18:10.650Z,23
2018-10-07T10:19:15.902Z,23
2018-10-07T10:20:21.048Z,23
2018-10-07T10:21:26.739Z,23
2018-10-07T10:22:31.977Z,23
2018-10-07T10:23:37.267Z,23
2018-10-07T10:24:42.854Z,23.1
2018-10-07T10:25:47.840Z,23
2018-10-07T10:26:53.022Z,23
2018-10-07T10:27:58.575Z,23.1
2018-10-07T10:29:03.850Z,23.1
2018-10-07T10:30:09.400Z,23.1
2018-10-07T10:31:15.026Z,23.1
2018-10-07T10:32:19.923Z,23.1
2018-10-07T10:34:44.872Z,23.1
2018-10-07T10:35:50.026Z,23.1
2018-10-07T10:36:55.235Z,23.1
2018-10-07T10:38:01.339Z,23.1
2018-10-07T10:39:06.505Z,23.1
2018-10-07T10:40:11.804Z,23.1
2018-10-07T10:41:16.999Z,23.1
2018-10-07T10:42:22.143Z,23.1
2018-10-07T10:43:27.224Z,23.1
2018-10-07T10:44:32.386Z,23.1
2018-10-07T10:45:38.120Z,23.1
2018-10-07T10:46:43.283Z,23.1
2018-10-07T10:47:48.134Z,23.1
2018-10-07T10:48:53.581Z,23.1
2018-10-07T10:49:58.746Z,23.1
2018-10-07T10:51:04.184Z,23.1
2018-10-07T10:52:09.360Z,23.1
2018-10-07T10:53:14.564Z,23.1
2018-10-07T10:54:20.069Z,23.1
2018-10-07T10:55:26.099Z,23.1
2018-10-07T10:56:31.543Z,23.1
2018-10-07T10:57:37.428Z,23.1
2018-10-07T10:58:42.858Z,23.1
2018-10-07T10:59:48.344Z,23.1
2018-10-07T11:00:54.125Z,23.1
2018-10-07T11:02:00.091Z,23.1
2018-10-07T11:03:04.696Z,23.1
2018-10-07T11:04:10.140Z,23.1
2018-10-07T11:05:15.670Z,23.1
2018-10-07T11:06:21.099Z,23.1
2018-10-07T11:07:26.936Z,23.1
2018-10-07T11:08:32.089Z,23.1
2018-10-07T11:09:37.779Z,23.1
2018-10-07T11:10:43.234Z,23.2
2018-10-07T11:11:48.728Z,23.2
2018-10-07T11:12:54.020Z,23.2
2018-10-07T11:13:59.045Z,23.2
2018-10-07T11:15:05.188Z,23.2
2018-10-07T11:16:10.617Z,23.2
2018-10-07T11:17:15.770Z,23.2
2018-10-07T11:18:20.925Z,23.2
2018-10-07T11:19:27.022Z,23.2
2018-10-07T11:20:32.888Z,23.2
2018-10-07T11:21:38.444Z,23.2
2018-10-07T11:22:43.390Z,23.2
2018-10-07T11:23:48.863Z,23.2
2018-10-07T11:24:54.613Z,23.2
2018-10-07T11:26:00.108Z,23.2
2018-10-07T11:27:05.096Z,23.2
2018-10-07T11:28:10.504Z,23.2
2018-10-07T11:29:15.285Z,23.2
2018-10-07T11:30:20.714Z,23.2
2018-10-07T11:31:26.520Z,23.2
2018-10-07T11:32:31.653Z,23.2
2018-10-07T11:33:37.029Z,23.2
2018-10-07T11:34:42.260Z,23.2
2018-10-07T11:35:47.561Z,23.2
2018-10-07T11:36:52.832Z,23.2
2018-10-07T11:37:57.430Z,23.2
2018-10-07T11:39:02.083Z,23.2
2018-10-07T11:40:07.054Z,23.2
2018-10-07T11:41:11.436Z,23.2
2018-10-07T11:42:16.878Z,23.2
2018-10-07T11:43:22.658Z,23.2
2018-10-07T11:44:28.172Z,23.2
2018-10-07T11:45:33.443Z,23.2
2018-10-07T11:46:38.977Z,23.2
2018-10-07T11:47:44.145Z,23.2
2018-10-07T11:48:49.300Z,23.2
2018-10-07T11:49:54.509Z,23.2
2018-10-07T11:50:59.812Z,23.2
2018-10-07T11:52:05.047Z,23.2
2018-10-07T11:53:10.479Z,23.3
2018-10-07T11:54:15.933Z,23.2
2018-10-07T11:55:21.123Z,23.3
2018-10-07T11:56:26.646Z,23.3
2018-10-07T11:57:32.238Z,23.3
2018-10-07T11:58:37.413Z,23.3
2018-10-07T11:59:42.602Z,23.3
2018-10-07T12:00:48.640Z,23.3
2018-10-07T12:01:53.516Z,23.3
2018-10-07T12:02:58.675Z,23.3
2018-10-07T12:04:04.025Z,23.3
2018-10-07T12:05:09.203Z,23.3
2018-10-07T12:06:14.444Z,23.3
2018-10-07T12:07:19.568Z,23.3
2018-10-07T12:08:25.012Z,23.3
2018-10-07T12:09:30.708Z,23.3
2018-10-07T12:10:35.925Z,23.3
2018-10-07T12:11:40.527Z,23.3
2018-10-07T12:12:45.388Z,23.3
2018-10-07T12:13:50.827Z,23.3
2018-10-07T12:14:56.282Z,23.3
2018-10-07T12:16:02.021Z,23.3
2018-10-07T12:17:07.194Z,23.3
2018-10-07T12:18:12.357Z,23.3
2018-10-07T12:19:18.223Z,23.3
2018-10-07T12:20:23.722Z,23.3
2018-10-07T12:21:29.313Z,23.3
2018-10-07T12:22:34.706Z,23.3
2018-10-07T12:23:39.373Z,23.3
2018-10-07T12:24:44.876Z,23.3
2018-10-07T12:25:50.393Z,23.3
2018-10-07T12:26:55.556Z,23.3
2018-10-07T12:28:01.121Z,23.3
2018-10-07T12:29:05.496Z,23.3
2018-10-07T12:30:11.914Z,23.3
2018-10-07T12:31:17.601Z,23.3
2018-10-07T12:32:22.625Z,23.3
2018-10-07T12:33:28.628Z,23.3
2018-10-07T12:34:33.264Z,23.3
2018-10-07T12:35:38.988Z,23.3
2018-10-07T12:36:44.817Z,23.3
2018-10-07T12:37:50.222Z,23.3
2018-10-07T12:38:55.243Z,23.3
2018-10-07T12:40:00.407Z,23.3
2018-10-07T12:41:05.273Z,23.3
2018-10-07T12:42:10.194Z,23.3
2018-10-07T12:43:15.973Z,23.3
2018-10-07T12:44:21.148Z,23.3
2018-10-07T12:45:27.032Z,23.3
2018-10-07T12:46:32.260Z,23.3
2018-10-07T12:47:37.160Z,23.3
2018-10-07T12:48:43.195Z,23.4
2018-10-07T12:49:48.154Z,23.3
2018-10-07T12:50:53.347Z,23.4
2018-10-07T12:51:59.060Z,23.4
2018-10-07T12:53:04.290Z,23.4
2018-10-07T12:54:09.514Z,23.4
2018-10-07T12:55:15.654Z,23.4
2018-10-07T12:56:21.168Z,23.4
2018-10-07T12:57:27.298Z,23.4
2018-10-07T12:58:32.453Z,23.4
2018-10-07T12:59:37.909Z,23.4
2018-10-07T13:00:43.331Z,23.4
2018-10-07T13:01:48.563Z,23.4
2018-10-07T13:02:53.717Z,23.4
2018-10-07T13:03:59.419Z,23.4
2018-10-07T13:05:04.288Z,23.4
2018-10-07T13:06:09.444Z,23.4
2018-10-07T13:07:14.846Z,23.4
2018-10-07T13:08:20.019Z,23.4
2018-10-07T13:10:46.031Z,23.4
2018-10-07T13:11:51.502Z,23.4
2018-10-07T13:12:57.139Z,23.4
2018-10-07T13:14:02.036Z,23.4
2018-10-07T13:15:06.632Z,23.4
2018-10-07T13:16:11.760Z,23.4
2018-10-07T13:17:16.634Z,23.4
2018-10-07T13:18:21.833Z,23.4
2018-10-07T13:19:27.387Z,23.4
2018-10-07T13:20:33.046Z,23.4
2018-10-07T13:21:39.118Z,23.4
2018-10-07T13:22:44.550Z,23.4
2018-10-07T13:23:49.691Z,23.4
2018-10-07T13:24:55.730Z,23.4
2018-10-07T13:26:01.226Z,23.4
2018-10-07T13:27:06.021Z,23.4
2018-10-07T13:28:11.141Z,23.4
2018-10-07T13:29:16.575Z,23.4
2018-10-07T13:30:21.765Z,23.4
2018-10-07T13:31:27.496Z,23.4
2018-10-07T13:32:32.374Z,23.4
2018-10-07T13:33:38.236Z,23.4
2018-10-07T13:34:43.135Z,23.4
2018-10-07T13:35:48.566Z,23.4
2018-10-07T13:36:53.849Z,23.4
2018-10-07T13:37:59.295Z,23.4
2018-10-07T13:39:04.456Z,23.4
2018-10-07T13:40:10.142Z,23.4
2018-10-07T13:41:15.326Z,23.4
2018-10-07T13:42:20.485Z,23.4
2018-10-07T13:43:26.290Z,23.4
2018-10-07T13:44:31.640Z,23.4
2018-10-07T13:45:37.385Z,23.4
2018-10-07T13:46:42.074Z,23.4
2018-10-07T13:47:47.261Z,23.4
2018-10-07T13:48:52.816Z,23.4
2018-10-07T13:49:57.705Z,23.4
2018-10-07T13:51:02.867Z,23.4
2018-10-07T13:52:08.275Z,23.4
2018-10-07T13:53:13.494Z,23.4
2018-10-07T13:54:18.892Z,23.4
2018-10-07T13:55:24.573Z,23.4
2018-10-07T13:56:30.004Z,23.4
2018-10-07T13:57:35.508Z,23.4
2018-10-07T13:58:40.674Z,23.4
2018-10-07T13:59:45.845Z,23.5
2018-10-07T14:00:51.695Z,23.4
2018-10-07T14:01:56.927Z,23.5
2018-10-07T14:03:01.793Z,23.5
2018-10-07T14:04:06.363Z,23.5
2018-10-07T14:05:11.513Z,23.5
2018-10-07T14:06:17.012Z,23.5
2018-10-07T14:07:22.327Z,23.5
2018-10-07T14:08:27.771Z,23.5
2018-10-07T14:09:33.679Z,23.5
2018-10-07T14:10:38.839Z,23.5
2018-10-07T14:11:44.378Z,23.5
2018-10-07T14:12:50.161Z,23.5
2018-10-07T14:13:55.592Z,23.5
2018-10-07T14:15:00.773Z,23.5
2018-10-07T14:16:05.803Z,23.5
2018-10-07T14:17:11.315Z,23.5
2018-10-07T14:18:16.747Z,23.5
2018-10-07T14:19:21.642Z,23.5
2018-10-07T14:20:26.788Z,23.5
2018-10-07T14:21:32.369Z,23.5
2018-10-07T14:22:37.062Z,23.5
2018-10-07T14:23:42.489Z,23.5
2018-10-07T14:24:48.336Z,23.5
2018-10-07T14:25:53.569Z,23.5
2018-10-07T14:26:58.753Z,23.5
2018-10-07T14:28:03.887Z,23.5
2018-10-07T14:29:08.807Z,23.5
2018-10-07T14:30:14.109Z,23.5
2018-10-07T14:31:19.323Z,23.5
2018-10-07T14:32:24.476Z,23.5
2018-10-07T14:33:30.456Z,23.5
2018-10-07T14:34:35.365Z,23.5
2018-10-07T14:35:40.559Z,23.5
2018-10-07T14:36:46.493Z,23.5
2018-10-07T14:37:51.177Z,23.5
2018-10-07T14:38:56.607Z,23.5
2018-10-07T14:40:02.099Z,23.5
2018-10-07T14:41:07.351Z,23.5
2018-10-07T14:42:12.565Z,23.5
2018-10-07T14:43:18.527Z,23.5
2018-10-07T14:44:23.670Z,23.5
2018-10-07T14:45:29.360Z,23.5
2018-10-07T14:46:34.236Z,23.5
2018-10-07T14:47:39.527Z,23.5
2018-10-07T14:48:44.972Z,23.5
2018-10-07T14:49:50.148Z,23.5
2018-10-07T14:50:55.268Z,23.5
2018-10-07T14:52:00.266Z,23.5
2018-10-07T14:53:05.718Z,23.5
2018-10-07T14:54:10.872Z,23.5
2018-10-07T14:55:16.756Z,23.5
2018-10-07T14:56:22.717Z,23.5